sensor_id;sensor_type;location;lat;lon;timestamp;temperature;humidity
12289;DHT22;6207;49.308;7.336;2022-07-06T05:02:59;18.40;99.90
12289;DHT22;6207;49.308;7.336;2022-07-06T05:05:25;19.30;99.90
12289;DHT22;6207;49.308;7.336;2022-07-06T05:07:52;18.90;99.90
12289;DHT22;6207;49.308;7.336;2022-07-06T05:10:19;19.00;99.90
12289;DHT22;6207;49.308;7.336;2022-07-06T05:12:46;19.10;99.90
12289;DHT22;6207;49.308;7.336;2022-07-06T05:15:12;18.90;99.90
12289;DHT22;6207;49.308;7.336;2022-07-06T05:17:39;19.60;99.90
12289;DHT22;6207;49.308;7.336;2022-07-06T05:20:06;18.20;99.90
12289;DHT22;6207;49.308;7.336;2022-07-06T05:22:33;18.70;99.90
12289;DHT22;6207;49.308;7.336;2022-07-06T05:25:00;19.50;99.90
12289;DHT22;6207;49.308;7.336;2022-07-06T05:27:27;20.10;99.90
12289;DHT22;6207;49.308;7.336;2022-07-06T05:29:54;20.40;99.90
12289;DHT22;6207;49.308;7.336;2022-07-06T05:32:20;20.40;99.90
12289;DHT22;6207;49.308;7.336;2022-07-06T05:34:47;21.40;99.90
12289;DHT22;6207;49.308;7.336;2022-07-06T05:37:14;21.80;99.90
12289;DHT22;6207;49.308;7.336;2022-07-06T05:39:40;21.10;99.90
12289;DHT22;6207;49.308;7.336;2022-07-06T05:42:10;21.10;99.90
12289;DHT22;6207;49.308;7.336;2022-07-06T05:44:37;20.60;99.90
12289;DHT22;6207;49.308;7.336;2022-07-06T05:47:04;19.00;99.90
12289;DHT22;6207;49.308;7.336;2022-07-06T05:49:49;20.20;99.90
12289;DHT22;6207;49.308;7.336;2022-07-06T05:52:44;20.20;99.90
12289;DHT22;6207;49.308;7.336;2022-07-06T05:55:12;20.60;99.90
12289;DHT22;6207;49.308;7.336;2022-07-06T05:57:39;19.70;99.90
12289;DHT22;6207;49.308;7.336;2022-07-06T06:00:07;20.00;99.90
12289;DHT22;6207;49.308;7.336;2022-07-06T06:02:38;20.50;99.90
12289;DHT22;6207;49.308;7.336;2022-07-06T06:05:07;21.00;99.90
12289;DHT22;6207;49.308;7.336;2022-07-06T06:07:38;20.40;99.90
12289;DHT22;6207;49.308;7.336;2022-07-06T06:10:10;21.00;99.90
12289;DHT22;6207;49.308;7.336;2022-07-06T06:12:38;21.00;99.90
12289;DHT22;6207;49.308;7.336;2022-07-06T06:15:05;21.90;99.90
12289;DHT22;6207;49.308;7.336;2022-07-06T06:17:33;22.30;99.90
12289;DHT22;6207;49.308;7.336;2022-07-06T06:20:00;23.60;99.90
12289;DHT22;6207;49.308;7.336;2022-07-06T06:22:27;23.60;99.90
12289;DHT22;6207;49.308;7.336;2022-07-06T06:24:54;22.30;99.90
12289;DHT22;6207;49.308;7.336;2022-07-06T06:27:21;22.20;99.90
12289;DHT22;6207;49.308;7.336;2022-07-06T06:29:48;22.40;99.90
12289;DHT22;6207;49.308;7.336;2022-07-06T06:32:18;22.00;99.90
12289;DHT22;6207;49.308;7.336;2022-07-06T08:35:25;19.70;99.90
12289;DHT22;6207;49.308;7.336;2022-07-06T08:37:52;19.90;99.90
12289;DHT22;6207;49.308;7.336;2022-07-06T08:40:22;19.10;99.90
12289;DHT22;6207;49.308;7.336;2022-07-06T08:42:54;19.00;99.90
12289;DHT22;6207;49.308;7.336;2022-07-06T08:45:25;19.20;99.90
12289;DHT22;6207;49.308;7.336;2022-07-06T08:51:11;18.90;99.90
12289;DHT22;6207;49.308;7.336;2022-07-06T08:53:51;19.30;99.90
12289;DHT22;6207;49.308;7.336;2022-07-06T08:56:19;19.90;99.90
12289;DHT22;6207;49.308;7.336;2022-07-06T08:59:11;19.90;99.90
12289;DHT22;6207;49.308;7.336;2022-07-06T09:02:12;19.80;99.90
12289;DHT22;6207;49.308;7.336;2022-07-06T09:04:45;19.30;99.90
12289;DHT22;6207;49.308;7.336;2022-07-06T09:07:16;19.40;99.90
12289;DHT22;6207;49.308;7.336;2022-07-06T09:10:05;19.50;99.90
12289;DHT22;6207;49.308;7.336;2022-07-06T09:12:45;19.40;99.90
12289;DHT22;6207;49.308;7.336;2022-07-06T09:15:17;19.10;99.90
12289;DHT22;6207;49.308;7.336;2022-07-06T09:17:49;20.60;99.90
12289;DHT22;6207;49.308;7.336;2022-07-06T09:20:34;19.90;99.90
12289;DHT22;6207;49.308;7.336;2022-07-06T10:55:52;20.00;99.90
12289;DHT22;6207;49.308;7.336;2022-07-06T10:58:39;20.00;99.90
12289;DHT22;6207;49.308;7.336;2022-07-06T11:01:08;19.90;99.90
12289;DHT22;6207;49.308;7.336;2022-07-06T11:08:54;20.60;99.90
12289;DHT22;6207;49.308;7.336;2022-07-06T11:11:25;20.40;99.90
12289;DHT22;6207;49.308;7.336;2022-07-06T11:13:55;20.80;99.90
12289;DHT22;6207;49.308;7.336;2022-07-06T11:16:24;21.20;99.90
12289;DHT22;6207;49.308;7.336;2022-07-06T11:19:04;20.40;99.90
12289;DHT22;6207;49.308;7.336;2022-07-06T11:21:36;20.30;99.90
12289;DHT22;6207;49.308;7.336;2022-07-06T11:24:06;20.20;99.90
12289;DHT22;6207;49.308;7.336;2022-07-06T11:26:33;20.30;99.90
12289;DHT22;6207;49.308;7.336;2022-07-06T11:29:07;20.70;99.90
12289;DHT22;6207;49.308;7.336;2022-07-06T11:31:36;21.10;99.90
12289;DHT22;6207;49.308;7.336;2022-07-06T11:34:05;21.00;99.90
12289;DHT22;6207;49.308;7.336;2022-07-06T13:59:55;21.80;99.90
12289;DHT22;6207;49.308;7.336;2022-07-06T14:02:22;22.20;99.90
12289;DHT22;6207;49.308;7.336;2022-07-06T14:04:49;22.20;99.90
12289;DHT22;6207;49.308;7.336;2022-07-06T14:07:16;21.10;99.90
12289;DHT22;6207;49.308;7.336;2022-07-06T14:09:46;21.40;99.90
12289;DHT22;6207;49.308;7.336;2022-07-06T14:12:19;21.60;99.90
12289;DHT22;6207;49.308;7.336;2022-07-06T14:14:49;21.30;99.90
12289;DHT22;6207;49.308;7.336;2022-07-06T14:17:19;22.80;99.90
12289;DHT22;6207;49.308;7.336;2022-07-06T14:19:48;22.20;99.90
12289;DHT22;6207;49.308;7.336;2022-07-06T14:22:15;22.50;99.90
12289;DHT22;6207;49.308;7.336;2022-07-06T14:24:42;22.60;99.90
12289;DHT22;6207;49.308;7.336;2022-07-06T14:27:09;22.20;99.90
12289;DHT22;6207;49.308;7.336;2022-07-06T14:29:36;22.00;99.90
12289;DHT22;6207;49.308;7.336;2022-07-06T14:32:03;22.00;99.90
12289;DHT22;6207;49.308;7.336;2022-07-06T14:34:30;22.30;99.90
12289;DHT22;6207;49.308;7.336;2022-07-06T14:36:57;22.10;99.90
12289;DHT22;6207;49.308;7.336;2022-07-06T14:39:24;22.70;99.90
12289;DHT22;6207;49.308;7.336;2022-07-06T14:45:31;22.30;99.90
12289;DHT22;6207;49.308;7.336;2022-07-06T14:48:00;22.10;99.90
12289;DHT22;6207;49.308;7.336;2022-07-06T14:50:28;21.90;99.90
12289;DHT22;6207;49.308;7.336;2022-07-06T14:52:55;21.50;99.90
12289;DHT22;6207;49.308;7.336;2022-07-06T14:55:22;21.40;99.90
12289;DHT22;6207;49.308;7.336;2022-07-06T14:57:56;21.60;99.90
12289;DHT22;6207;49.308;7.336;2022-07-06T15:00:23;21.60;99.90
12289;DHT22;6207;49.308;7.336;2022-07-06T15:02:52;21.60;99.90
12289;DHT22;6207;49.308;7.336;2022-07-06T15:05:29;21.20;99.90
12289;DHT22;6207;49.308;7.336;2022-07-06T15:07:59;21.10;99.90
12289;DHT22;6207;49.308;7.336;2022-07-06T15:10:28;21.40;99.90
12289;DHT22;6207;49.308;7.336;2022-07-06T15:12:55;20.40;99.90
12289;DHT22;6207;49.308;7.336;2022-07-06T15:15:30;21.40;99.90
12289;DHT22;6207;49.308;7.336;2022-07-06T15:18:26;20.90;99.90
12289;DHT22;6207;49.308;7.336;2022-07-06T15:20:54;21.30;99.90
12289;DHT22;6207;49.308;7.336;2022-07-06T15:23:21;21.40;99.90
12289;DHT22;6207;49.308;7.336;2022-07-06T15:25:52;21.50;99.90
12289;DHT22;6207;49.308;7.336;2022-07-06T15:28:23;22.30;99.90
12289;DHT22;6207;49.308;7.336;2022-07-06T15:30:55;21.30;99.90
12289;DHT22;6207;49.308;7.336;2022-07-06T15:33:22;21.20;99.90
12289;DHT22;6207;49.308;7.336;2022-07-06T15:35:49;22.00;99.90
12289;DHT22;6207;49.308;7.336;2022-07-06T15:38:16;21.00;99.90
12289;DHT22;6207;49.308;7.336;2022-07-06T15:40:46;21.40;99.90
12289;DHT22;6207;49.308;7.336;2022-07-06T15:43:18;21.80;99.90
12289;DHT22;6207;49.308;7.336;2022-07-06T15:45:45;22.00;99.90
12289;DHT22;6207;49.308;7.336;2022-07-06T15:48:12;21.40;99.90
12289;DHT22;6207;49.308;7.336;2022-07-06T15:50:48;21.70;99.90
12289;DHT22;6207;49.308;7.336;2022-07-06T15:53:25;21.60;99.90
12289;DHT22;6207;49.308;7.336;2022-07-06T15:55:52;21.90;99.90
12289;DHT22;6207;49.308;7.336;2022-07-06T15:58:27;22.60;99.90
12289;DHT22;6207;49.308;7.336;2022-07-06T16:00:57;21.80;99.90
12289;DHT22;6207;49.308;7.336;2022-07-06T16:03:25;22.20;99.90
12289;DHT22;6207;49.308;7.336;2022-07-06T16:05:53;21.00;99.90
12289;DHT22;6207;49.308;7.336;2022-07-06T16:08:35;21.30;99.90
12289;DHT22;6207;49.308;7.336;2022-07-06T16:11:12;21.40;99.90
12289;DHT22;6207;49.308;7.336;2022-07-06T16:13:39;21.10;99.90
12289;DHT22;6207;49.308;7.336;2022-07-06T16:16:36;21.20;99.90
12289;DHT22;6207;49.308;7.336;2022-07-06T16:19:06;22.90;99.90
12289;DHT22;6207;49.308;7.336;2022-07-06T16:21:40;21.20;99.90
12289;DHT22;6207;49.308;7.336;2022-07-06T16:24:07;20.90;99.90
12289;DHT22;6207;49.308;7.336;2022-07-06T16:26:34;21.20;99.90
12289;DHT22;6207;49.308;7.336;2022-07-06T16:29:01;21.40;99.90
12289;DHT22;6207;49.308;7.336;2022-07-06T16:31:28;21.20;99.90
12289;DHT22;6207;49.308;7.336;2022-07-06T16:33:55;21.50;99.90
12289;DHT22;6207;49.308;7.336;2022-07-06T16:36:22;21.20;99.90
12289;DHT22;6207;49.308;7.336;2022-07-06T16:38:51;21.20;99.90
12289;DHT22;6207;49.308;7.336;2022-07-06T16:41:18;21.50;99.90
12289;DHT22;6207;49.308;7.336;2022-07-06T16:43:45;22.30;99.90
12289;DHT22;6207;49.308;7.336;2022-07-06T16:46:12;22.30;99.90
12289;DHT22;6207;49.308;7.336;2022-07-06T16:48:39;22.50;99.90
12289;DHT22;6207;49.308;7.336;2022-07-06T16:51:09;22.40;99.90
12289;DHT22;6207;49.308;7.336;2022-07-06T16:53:36;21.80;99.90
12289;DHT22;6207;49.308;7.336;2022-07-06T17:09:28;21.70;99.90
12289;DHT22;6207;49.308;7.336;2022-07-06T17:11:57;21.30;99.90
12289;DHT22;6207;49.308;7.336;2022-07-06T17:14:29;21.10;99.90
12289;DHT22;6207;49.308;7.336;2022-07-06T17:16:58;21.50;99.90
12289;DHT22;6207;49.308;7.336;2022-07-06T17:19:25;22.00;99.90
12289;DHT22;6207;49.308;7.336;2022-07-06T17:21:52;21.70;99.90
12289;DHT22;6207;49.308;7.336;2022-07-06T17:24:24;21.80;99.90
12289;DHT22;6207;49.308;7.336;2022-07-06T17:26:51;20.70;99.90
12289;DHT22;6207;49.308;7.336;2022-07-06T17:29:25;21.90;99.90
12289;DHT22;6207;49.308;7.336;2022-07-06T17:31:53;21.70;99.90
12289;DHT22;6207;49.308;7.336;2022-07-06T17:34:26;22.00;99.90
12289;DHT22;6207;49.308;7.336;2022-07-06T17:36:59;21.50;99.90
12289;DHT22;6207;49.308;7.336;2022-07-06T17:39:26;21.40;99.90
12289;DHT22;6207;49.308;7.336;2022-07-06T17:41:53;21.80;99.90
12289;DHT22;6207;49.308;7.336;2022-07-06T17:44:20;21.10;99.90
12289;DHT22;6207;49.308;7.336;2022-07-06T17:46:47;21.30;99.90
12289;DHT22;6207;49.308;7.336;2022-07-06T17:49:14;22.30;99.90
12289;DHT22;6207;49.308;7.336;2022-07-06T17:51:45;20.60;99.90
12289;DHT22;6207;49.308;7.336;2022-07-06T17:54:14;21.40;99.90
12289;DHT22;6207;49.308;7.336;2022-07-06T17:56:41;21.70;99.90
12289;DHT22;6207;49.308;7.336;2022-07-06T17:59:08;22.10;99.90
12289;DHT22;6207;49.308;7.336;2022-07-06T18:01:35;21.80;99.90
12289;DHT22;6207;49.308;7.336;2022-07-06T18:04:31;21.80;99.90
12289;DHT22;6207;49.308;7.336;2022-07-06T18:07:04;21.30;99.90
12289;DHT22;6207;49.308;7.336;2022-07-06T18:09:44;21.20;99.90
12289;DHT22;6207;49.308;7.336;2022-07-06T18:12:11;21.00;99.90
12289;DHT22;6207;49.308;7.336;2022-07-06T18:14:44;21.30;99.90
12289;DHT22;6207;49.308;7.336;2022-07-06T18:17:21;21.00;99.90
12289;DHT22;6207;49.308;7.336;2022-07-06T18:19:54;21.00;99.90
12289;DHT22;6207;49.308;7.336;2022-07-06T18:22:37;20.70;99.90
12289;DHT22;6207;49.308;7.336;2022-07-06T18:25:19;21.30;99.90
12289;DHT22;6207;49.308;7.336;2022-07-06T18:27:48;21.00;99.90
12289;DHT22;6207;49.308;7.336;2022-07-06T18:30:25;20.90;99.90
12289;DHT22;6207;49.308;7.336;2022-07-06T18:32:52;20.70;99.90
12289;DHT22;6207;49.308;7.336;2022-07-06T18:35:22;20.70;99.90
12289;DHT22;6207;49.308;7.336;2022-07-06T18:37:49;20.80;99.90
12289;DHT22;6207;49.308;7.336;2022-07-06T18:40:15;21.30;99.90
12289;DHT22;6207;49.308;7.336;2022-07-06T18:42:44;20.80;99.90
12289;DHT22;6207;49.308;7.336;2022-07-06T18:45:11;21.90;99.90
12289;DHT22;6207;49.308;7.336;2022-07-06T18:47:38;21.10;99.90
12289;DHT22;6207;49.308;7.336;2022-07-06T18:50:05;20.80;99.90
12289;DHT22;6207;49.308;7.336;2022-07-06T18:52:32;20.60;99.90
12289;DHT22;6207;49.308;7.336;2022-07-06T18:55:02;20.50;99.90
12289;DHT22;6207;49.308;7.336;2022-07-06T18:57:30;20.70;99.90
12289;DHT22;6207;49.308;7.336;2022-07-06T18:59:58;20.30;99.90
12289;DHT22;6207;49.308;7.336;2022-07-06T19:02:26;20.80;99.90
12289;DHT22;6207;49.308;7.336;2022-07-06T19:04:53;20.20;99.90
12289;DHT22;6207;49.308;7.336;2022-07-06T19:07:20;20.00;99.90
12289;DHT22;6207;49.308;7.336;2022-07-06T19:09:49;20.10;99.90
12289;DHT22;6207;49.308;7.336;2022-07-06T19:12:21;20.80;99.90
12289;DHT22;6207;49.308;7.336;2022-07-06T19:14:48;19.50;99.90
12289;DHT22;6207;49.308;7.336;2022-07-06T19:17:15;19.60;99.90
12289;DHT22;6207;49.308;7.336;2022-07-06T19:19:42;19.40;99.90
12289;DHT22;6207;49.308;7.336;2022-07-06T19:22:09;19.60;99.90
12289;DHT22;6207;49.308;7.336;2022-07-06T19:24:35;19.20;99.90
12289;DHT22;6207;49.308;7.336;2022-07-06T19:27:02;19.10;99.90
12289;DHT22;6207;49.308;7.336;2022-07-06T19:29:30;18.90;99.90
12289;DHT22;6207;49.308;7.336;2022-07-06T19:31:57;18.70;99.90
12289;DHT22;6207;49.308;7.336;2022-07-06T19:34:28;19.00;99.90
12289;DHT22;6207;49.308;7.336;2022-07-06T19:36:55;18.10;99.90
12289;DHT22;6207;49.308;7.336;2022-07-06T19:39:22;18.90;99.90
12289;DHT22;6207;49.308;7.336;2022-07-06T19:41:49;18.30;99.90
12289;DHT22;6207;49.308;7.336;2022-07-06T19:44:16;18.00;99.90
12289;DHT22;6207;49.308;7.336;2022-07-06T19:46:43;18.80;99.90
12289;DHT22;6207;49.308;7.336;2022-07-06T19:49:12;18.60;99.90
12289;DHT22;6207;49.308;7.336;2022-07-06T19:51:40;18.40;99.90
12289;DHT22;6207;49.308;7.336;2022-07-06T19:54:07;18.60;99.90
12289;DHT22;6207;49.308;7.336;2022-07-06T19:56:34;18.10;99.90
12289;DHT22;6207;49.308;7.336;2022-07-06T19:59:01;17.40;99.90
12289;DHT22;6207;49.308;7.336;2022-07-06T20:01:33;17.90;99.90
12289;DHT22;6207;49.308;7.336;2022-07-06T20:04:00;18.20;99.90
12289;DHT22;6207;49.308;7.336;2022-07-06T20:06:27;18.10;99.90
12289;DHT22;6207;49.308;7.336;2022-07-06T20:08:54;17.60;99.90
12289;DHT22;6207;49.308;7.336;2022-07-06T20:11:22;17.20;99.90
12289;DHT22;6207;49.308;7.336;2022-07-06T20:13:48;16.80;99.90
12289;DHT22;6207;49.308;7.336;2022-07-06T20:16:15;17.40;99.90
12289;DHT22;6207;49.308;7.336;2022-07-06T20:18:43;16.90;99.90
12289;DHT22;6207;49.308;7.336;2022-07-06T20:21:13;17.30;99.90
12289;DHT22;6207;49.308;7.336;2022-07-06T20:23:43;17.50;99.90
12289;DHT22;6207;49.308;7.336;2022-07-06T20:26:19;17.00;99.90
12289;DHT22;6207;49.308;7.336;2022-07-06T20:28:46;18.10;99.90
12289;DHT22;6207;49.308;7.336;2022-07-06T20:31:13;18.20;99.90
12289;DHT22;6207;49.308;7.336;2022-07-06T20:33:43;17.20;99.90
12289;DHT22;6207;49.308;7.336;2022-07-06T20:36:10;17.70;99.90
12289;DHT22;6207;49.308;7.336;2022-07-06T20:38:38;16.40;99.90
12289;DHT22;6207;49.308;7.336;2022-07-06T20:41:05;16.50;99.90
12289;DHT22;6207;49.308;7.336;2022-07-06T20:43:35;16.20;99.90
12289;DHT22;6207;49.308;7.336;2022-07-06T20:46:03;17.10;99.90
12289;DHT22;6207;49.308;7.336;2022-07-06T20:48:30;16.30;99.90
12289;DHT22;6207;49.308;7.336;2022-07-06T20:50:57;16.60;99.90
12289;DHT22;6207;49.308;7.336;2022-07-06T20:53:24;16.40;99.90
12289;DHT22;6207;49.308;7.336;2022-07-06T20:55:51;15.70;99.90
12289;DHT22;6207;49.308;7.336;2022-07-06T20:58:20;16.50;99.90
12289;DHT22;6207;49.308;7.336;2022-07-06T21:00:47;16.80;99.90
12289;DHT22;6207;49.308;7.336;2022-07-06T21:03:14;15.90;99.90
12289;DHT22;6207;49.308;7.336;2022-07-06T21:05:41;15.80;99.90
12289;DHT22;6207;49.308;7.336;2022-07-06T21:08:08;15.40;99.90
12289;DHT22;6207;49.308;7.336;2022-07-06T21:10:35;15.40;99.90
12289;DHT22;6207;49.308;7.336;2022-07-06T21:13:02;15.60;99.90
12289;DHT22;6207;49.308;7.336;2022-07-06T21:15:29;14.10;99.90
12289;DHT22;6207;49.308;7.336;2022-07-06T21:17:57;15.50;99.90
12289;DHT22;6207;49.308;7.336;2022-07-06T21:20:24;15.60;99.90
12289;DHT22;6207;49.308;7.336;2022-07-06T21:22:53;16.00;99.90
12289;DHT22;6207;49.308;7.336;2022-07-06T21:25:20;16.20;99.90
12289;DHT22;6207;49.308;7.336;2022-07-06T21:27:46;15.50;99.90
12289;DHT22;6207;49.308;7.336;2022-07-06T21:30:13;15.50;99.90
12289;DHT22;6207;49.308;7.336;2022-07-06T21:32:40;15.60;99.90
12289;DHT22;6207;49.308;7.336;2022-07-06T21:35:07;15.60;99.90
12289;DHT22;6207;49.308;7.336;2022-07-06T21:37:34;14.90;99.90
12289;DHT22;6207;49.308;7.336;2022-07-06T21:40:01;16.00;99.90
12289;DHT22;6207;49.308;7.336;2022-07-06T21:42:28;15.80;99.90
12289;DHT22;6207;49.308;7.336;2022-07-06T21:44:54;14.70;99.90
12289;DHT22;6207;49.308;7.336;2022-07-06T21:47:21;14.90;99.90
12289;DHT22;6207;49.308;7.336;2022-07-06T21:49:48;15.90;99.90
12289;DHT22;6207;49.308;7.336;2022-07-06T21:52:15;15.50;99.90
12289;DHT22;6207;49.308;7.336;2022-07-06T21:54:42;16.00;99.90
12289;DHT22;6207;49.308;7.336;2022-07-06T21:57:09;15.30;99.90
12289;DHT22;6207;49.308;7.336;2022-07-06T21:59:36;14.50;99.90
12289;DHT22;6207;49.308;7.336;2022-07-06T22:02:04;14.70;99.90
12289;DHT22;6207;49.308;7.336;2022-07-06T22:04:33;14.50;99.90
12289;DHT22;6207;49.308;7.336;2022-07-06T22:07:02;14.30;99.90
12289;DHT22;6207;49.308;7.336;2022-07-06T22:09:28;14.40;99.90
12289;DHT22;6207;49.308;7.336;2022-07-06T22:11:57;14.50;99.90
12289;DHT22;6207;49.308;7.336;2022-07-06T22:14:25;15.50;99.90
12289;DHT22;6207;49.308;7.336;2022-07-06T22:16:52;14.20;99.90
12289;DHT22;6207;49.308;7.336;2022-07-06T22:19:20;14.50;99.90
12289;DHT22;6207;49.308;7.336;2022-07-06T22:21:46;14.60;99.90
12289;DHT22;6207;49.308;7.336;2022-07-06T22:24:13;14.90;99.90
12289;DHT22;6207;49.308;7.336;2022-07-06T22:26:40;14.10;99.90
12289;DHT22;6207;49.308;7.336;2022-07-06T22:29:07;14.90;99.90
12289;DHT22;6207;49.308;7.336;2022-07-06T22:31:34;14.30;99.90
12289;DHT22;6207;49.308;7.336;2022-07-06T22:34:01;14.50;99.90
12289;DHT22;6207;49.308;7.336;2022-07-06T22:36:28;15.20;99.90
12289;DHT22;6207;49.308;7.336;2022-07-06T22:39:00;14.10;99.90
12289;DHT22;6207;49.308;7.336;2022-07-06T22:41:27;14.00;99.90
12289;DHT22;6207;49.308;7.336;2022-07-06T22:43:57;15.20;99.90
12289;DHT22;6207;49.308;7.336;2022-07-06T22:46:25;14.40;99.90
12289;DHT22;6207;49.308;7.336;2022-07-06T22:48:52;14.60;99.90
12289;DHT22;6207;49.308;7.336;2022-07-06T22:51:21;13.80;99.90
12289;DHT22;6207;49.308;7.336;2022-07-06T22:53:48;15.00;99.90
12289;DHT22;6207;49.308;7.336;2022-07-06T22:56:16;14.10;99.90
12289;DHT22;6207;49.308;7.336;2022-07-06T22:58:43;14.80;99.90
12289;DHT22;6207;49.308;7.336;2022-07-06T23:01:12;14.10;99.90
12289;DHT22;6207;49.308;7.336;2022-07-06T23:03:39;14.10;99.90
12289;DHT22;6207;49.308;7.336;2022-07-06T23:06:07;13.60;99.90
12289;DHT22;6207;49.308;7.336;2022-07-06T23:08:34;15.20;99.90
12289;DHT22;6207;49.308;7.336;2022-07-06T23:11:00;13.90;99.90
12289;DHT22;6207;49.308;7.336;2022-07-06T23:13:27;15.20;99.90
12289;DHT22;6207;49.308;7.336;2022-07-06T23:15:55;14.00;99.90
12289;DHT22;6207;49.308;7.336;2022-07-06T23:18:22;14.60;99.90
12289;DHT22;6207;49.308;7.336;2022-07-06T23:20:49;13.70;99.90
12289;DHT22;6207;49.308;7.336;2022-07-06T23:23:16;13.90;99.90
12289;DHT22;6207;49.308;7.336;2022-07-06T23:25:43;14.40;99.90
12289;DHT22;6207;49.308;7.336;2022-07-06T23:28:10;14.10;99.90
12289;DHT22;6207;49.308;7.336;2022-07-06T23:30:37;15.00;99.90
12289;DHT22;6207;49.308;7.336;2022-07-06T23:33:04;15.20;99.90
12289;DHT22;6207;49.308;7.336;2022-07-06T23:35:31;14.00;99.90
12289;DHT22;6207;49.308;7.336;2022-07-06T23:37:58;14.10;99.90
12289;DHT22;6207;49.308;7.336;2022-07-06T23:40:25;15.00;99.90
12289;DHT22;6207;49.308;7.336;2022-07-06T23:42:52;14.00;99.90
12289;DHT22;6207;49.308;7.336;2022-07-06T23:45:19;14.50;99.90
12289;DHT22;6207;49.308;7.336;2022-07-06T23:47:45;14.90;99.90
12289;DHT22;6207;49.308;7.336;2022-07-06T23:50:13;15.50;99.90
12289;DHT22;6207;49.308;7.336;2022-07-06T23:52:40;15.30;99.90
12289;DHT22;6207;49.308;7.336;2022-07-06T23:55:07;14.10;99.90
12289;DHT22;6207;49.308;7.336;2022-07-06T23:57:34;13.70;99.90
